createdAt,value
2018-08-28T00:00:01.405Z,6.30
2018-08-28T00:02:30.873Z,5.17
2018-08-28T00:05:00.417Z,6.10
2018-08-28T00:07:28.700Z,5.90
2018-08-28T00:09:56.909Z,6.80
2018-08-28T00:12:25.213Z,7.03
2018-08-28T00:14:53.465Z,6.47
2018-08-28T00:17:21.637Z,7.90
2018-08-28T00:19:49.890Z,6.77
2018-08-28T00:22:18.065Z,6.30
2018-08-28T00:24:46.234Z,6.20
2018-08-28T00:27:14.562Z,6.17
2018-08-28T00:29:42.809Z,6.33
2018-08-28T00:32:11.001Z,8.70
2018-08-28T00:34:39.321Z,7.67
2018-08-28T00:37:07.577Z,9.70
2018-08-28T00:39:35.738Z,9.83
2018-08-28T00:42:03.948Z,8.80
2018-08-28T00:44:32.125Z,10.17
2018-08-28T00:47:00.298Z,10.63
2018-08-28T00:49:28.476Z,10.40
2018-08-28T00:51:56.650Z,9.57
2018-08-28T00:54:24.845Z,10.63
2018-08-28T00:56:53.057Z,11.20
2018-08-28T00:59:21.320Z,8.00
2018-08-28T01:01:49.489Z,7.70
2018-08-28T01:04:17.712Z,7.87
2018-08-28T01:06:45.870Z,6.77
2018-08-28T01:09:14.033Z,7.00
2018-08-28T01:11:42.217Z,7.43
2018-08-28T01:14:10.409Z,7.70
2018-08-28T01:16:38.593Z,7.07
2018-08-28T01:19:06.877Z,7.90
2018-08-28T01:21:35.063Z,8.13
2018-08-28T01:24:03.221Z,7.97
2018-08-28T01:26:31.489Z,7.00
2018-08-28T01:28:59.658Z,7.80
2018-08-28T01:31:27.817Z,7.60
2018-08-28T01:33:56.057Z,8.13
2018-08-28T01:36:24.222Z,8.47
2018-08-28T01:38:52.414Z,9.80
2018-08-28T01:41:20.645Z,9.07
2018-08-28T01:43:48.847Z,9.10
2018-08-28T01:46:17.021Z,10.30
2018-08-28T01:48:45.197Z,9.13
2018-08-28T01:51:13.449Z,8.80
2018-08-28T01:53:41.639Z,7.90
2018-08-28T01:56:09.821Z,8.67
2018-08-28T01:58:38.010Z,9.90
2018-08-28T02:01:06.365Z,9.13
2018-08-28T02:03:34.539Z,8.40
2018-08-28T02:06:02.705Z,9.00
2018-08-28T02:08:30.877Z,9.50
2018-08-28T02:10:59.061Z,9.10
2018-08-28T02:13:27.236Z,9.93
2018-08-28T02:15:55.389Z,9.90
2018-08-28T02:18:23.614Z,9.33
2018-08-28T02:20:51.785Z,9.97
2018-08-28T02:23:19.957Z,10.63
2018-08-28T02:25:48.122Z,9.47
2018-08-28T02:28:16.302Z,10.50
2018-08-28T02:30:44.573Z,12.43
2018-08-28T02:33:12.741Z,11.70
2018-08-28T02:35:41.030Z,12.13
2018-08-28T02:38:09.214Z,13.67
2018-08-28T02:40:37.377Z,12.00
2018-08-28T02:43:05.633Z,13.87
2018-08-28T02:45:33.799Z,15.60
2018-08-28T02:48:01.988Z,15.40
2018-08-28T02:50:30.522Z,15.50
2018-08-28T02:52:58.688Z,16.77
2018-08-28T02:55:26.877Z,19.97
2018-08-28T02:57:55.050Z,20.00
2018-08-28T03:00:23.302Z,22.20
2018-08-28T03:02:51.590Z,24.10
2018-08-28T03:05:19.751Z,19.40
2018-08-28T03:07:47.938Z,20.00
2018-08-28T03:10:16.100Z,17.50
2018-08-28T03:12:44.301Z,15.50
2018-08-28T03:15:12.473Z,13.03
2018-08-28T03:17:40.710Z,11.37
2018-08-28T03:20:09.007Z,10.40
2018-08-28T03:22:37.223Z,10.37
2018-08-28T03:25:05.405Z,9.80
2018-08-28T03:27:33.657Z,10.13
2018-08-28T03:30:01.825Z,10.40
2018-08-28T03:32:30.321Z,10.67
2018-08-28T03:34:58.516Z,9.80
2018-08-28T03:37:26.719Z,10.60
2018-08-28T03:39:54.995Z,9.97
2018-08-28T03:42:23.183Z,9.83
2018-08-28T03:44:51.485Z,10.70
2018-08-28T03:47:19.589Z,10.77
2018-08-28T03:49:47.769Z,10.07
2018-08-28T03:52:15.953Z,10.27
2018-08-28T03:54:44.157Z,10.00
2018-08-28T03:57:12.364Z,11.10
2018-08-28T03:59:43.590Z,10.20
2018-08-28T04:02:11.777Z,11.60
2018-08-28T04:04:39.962Z,10.77
2018-08-28T04:07:08.246Z,11.77
2018-08-28T04:09:36.521Z,10.30
2018-08-28T04:12:04.710Z,10.17
2018-08-28T04:14:33.409Z,11.60
2018-08-28T04:17:01.766Z,10.77
2018-08-28T04:19:29.913Z,10.87
2018-08-28T04:21:58.178Z,11.33
2018-08-28T04:24:26.354Z,11.87
2018-08-28T04:26:54.530Z,15.23
2018-08-28T04:29:22.701Z,19.57
2018-08-28T04:31:50.877Z,19.80
2018-08-28T04:34:19.061Z,20.60
2018-08-28T04:36:47.237Z,18.30
2018-08-28T04:39:15.477Z,21.43
2018-08-28T04:41:44.240Z,21.10
2018-08-28T04:44:12.425Z,19.37
2018-08-28T04:46:40.602Z,18.63
2018-08-28T04:49:08.769Z,16.63
2018-08-28T04:51:37.045Z,16.07
2018-08-28T04:54:05.457Z,18.53
2018-08-28T04:56:33.649Z,17.97
2018-08-28T04:59:01.825Z,18.00
2018-08-28T05:01:30.068Z,18.43
2018-08-28T05:03:58.249Z,16.20
2018-08-28T05:06:26.429Z,16.90
2018-08-28T05:08:54.949Z,14.20
2018-08-28T05:11:23.117Z,13.73
2018-08-28T05:13:51.289Z,11.00
2018-08-28T05:16:19.524Z,13.63
2018-08-28T05:18:47.702Z,12.40
2018-08-28T05:21:15.885Z,12.20
2018-08-28T05:23:44.055Z,12.67
2018-08-28T05:26:12.241Z,11.83
2018-08-28T05:28:40.433Z,12.37
2018-08-28T05:31:08.704Z,13.13
2018-08-28T05:33:36.889Z,12.80
2018-08-28T05:36:06.650Z,12.97
2018-08-28T05:38:35.313Z,13.20
2018-08-28T05:41:03.501Z,12.70
2018-08-28T05:43:31.678Z,13.33
2018-08-28T05:46:00.129Z,14.27
2018-08-28T05:48:28.306Z,15.00
2018-08-28T05:50:56.469Z,15.27
2018-08-28T05:53:24.633Z,14.70
2018-08-28T05:55:52.910Z,14.50
2018-08-28T05:58:21.003Z,16.57
2018-08-28T06:00:49.181Z,18.03
2018-08-28T06:03:17.587Z,21.90
2018-08-28T06:05:45.725Z,22.27
2018-08-28T06:08:13.897Z,15.97
2018-08-28T06:10:42.134Z,13.40
2018-08-28T06:13:10.555Z,13.40
2018-08-28T06:15:38.809Z,14.47
2018-08-28T06:18:07.217Z,14.47
2018-08-28T06:20:35.402Z,15.00
2018-08-28T06:23:03.598Z,13.63
2018-08-28T06:25:31.745Z,12.80
2018-08-28T06:27:59.930Z,12.53
2018-08-28T06:30:28.093Z,12.97
2018-08-28T06:32:56.253Z,12.47
2018-08-28T06:35:24.433Z,12.90
2018-08-28T06:37:52.605Z,13.13
2018-08-28T06:40:20.793Z,12.37
2018-08-28T06:42:49.157Z,12.43
2018-08-28T06:45:17.357Z,13.50
2018-08-28T06:47:45.578Z,12.50
2018-08-28T06:50:13.745Z,12.10
2018-08-28T06:52:41.941Z,11.87
2018-08-28T06:55:10.187Z,10.73
2018-08-28T06:57:38.640Z,11.53
2018-08-28T07:00:07.497Z,11.87
2018-08-28T07:02:35.715Z,12.57
2018-08-28T07:05:03.917Z,12.03
2018-08-28T07:07:32.093Z,12.50
2018-08-28T07:10:00.262Z,11.30
2018-08-28T07:12:28.453Z,12.40
2018-08-28T07:14:56.618Z,12.63
2018-08-28T07:17:24.805Z,11.20
2018-08-28T07:19:53.005Z,11.80
2018-08-28T07:22:21.186Z,11.23
2018-08-28T07:24:49.361Z,12.10
2018-08-28T07:27:17.534Z,12.63
2018-08-28T07:29:45.738Z,11.97
2018-08-28T07:32:13.909Z,12.00
2018-08-28T07:34:42.090Z,12.40
2018-08-28T07:37:10.273Z,12.30
2018-08-28T07:39:38.467Z,12.57
2018-08-28T07:42:06.693Z,13.23
2018-08-28T07:44:34.857Z,12.93
2018-08-28T07:47:03.137Z,12.20
2018-08-28T07:49:31.343Z,12.50
2018-08-28T07:51:59.585Z,11.60
2018-08-28T07:54:27.749Z,9.80
2018-08-28T07:56:55.921Z,12.20
2018-08-28T07:59:24.098Z,11.53
2018-08-28T08:01:52.286Z,11.00
2018-08-28T08:04:20.462Z,11.93
2018-08-28T08:06:48.641Z,11.37
2018-08-28T08:09:16.817Z,9.93
2018-08-28T08:11:45.026Z,10.70
2018-08-28T08:14:13.341Z,10.13
2018-08-28T08:16:41.527Z,10.00
2018-08-28T08:19:09.718Z,10.77
2018-08-28T08:21:37.933Z,9.80
2018-08-28T08:24:06.109Z,9.43
2018-08-28T08:26:34.281Z,9.97
2018-08-28T08:29:02.469Z,10.73
2018-08-28T08:31:30.653Z,11.20
2018-08-28T08:33:58.845Z,10.33
2018-08-28T08:36:27.122Z,11.03
2018-08-28T08:38:55.294Z,11.80
2018-08-28T08:41:23.506Z,11.57
2018-08-28T08:43:51.709Z,11.23
2018-08-28T08:46:19.921Z,11.23
2018-08-28T08:48:48.130Z,12.17
2018-08-28T08:51:16.401Z,13.00
2018-08-28T08:53:44.533Z,12.00
2018-08-28T08:56:12.705Z,13.73
2018-08-28T08:58:40.888Z,12.83
2018-08-28T09:01:09.184Z,12.67
2018-08-28T09:03:37.362Z,12.13
2018-08-28T09:06:05.592Z,12.87
2018-08-28T09:08:33.737Z,12.40
2018-08-28T09:11:01.923Z,12.50
2018-08-28T09:13:30.354Z,11.33
2018-08-28T09:15:58.496Z,12.17
2018-08-28T09:18:26.681Z,12.40
2018-08-28T09:20:54.878Z,13.00
2018-08-28T09:23:23.042Z,13.40
2018-08-28T09:25:51.226Z,12.03
2018-08-28T09:28:19.417Z,12.07
2018-08-28T09:30:47.833Z,11.90
2018-08-28T09:33:16.022Z,11.07
2018-08-28T09:35:44.198Z,12.50
2018-08-28T09:38:12.473Z,12.60
2018-08-28T09:40:40.770Z,12.77
2018-08-28T09:43:09.021Z,12.90
2018-08-28T09:45:37.372Z,11.80
2018-08-28T09:48:05.724Z,13.20
2018-08-28T09:50:33.956Z,13.60
2018-08-28T09:53:02.209Z,12.80
2018-08-28T09:55:30.449Z,11.77
2018-08-28T09:57:58.693Z,13.53
2018-08-28T10:00:26.922Z,10.77
2018-08-28T10:02:55.333Z,12.20
2018-08-28T10:05:23.694Z,12.37
2018-08-28T10:07:52.032Z,12.37
2018-08-28T10:10:20.246Z,11.67
2018-08-28T10:12:48.509Z,12.73
2018-08-28T10:15:16.827Z,12.67
2018-08-28T10:17:45.081Z,12.90
2018-08-28T10:20:13.389Z,11.50
2018-08-28T10:22:41.573Z,13.27
2018-08-28T10:25:10.014Z,12.37
2018-08-28T10:27:38.260Z,12.57
2018-08-28T10:30:07.099Z,12.67
2018-08-28T10:32:35.309Z,12.80
2018-08-28T10:35:03.601Z,13.30
2018-08-28T10:37:31.841Z,12.47
2018-08-28T10:40:00.122Z,12.40
2018-08-28T10:42:28.369Z,12.50
2018-08-28T10:44:56.620Z,12.40
2018-08-28T10:47:24.803Z,12.97
2018-08-28T10:49:53.021Z,12.40
2018-08-28T10:52:21.382Z,13.93
2018-08-28T10:54:49.561Z,13.37
2018-08-28T10:57:17.883Z,12.70
2018-08-28T10:59:46.142Z,12.80
2018-08-28T11:02:14.422Z,12.67
2018-08-28T11:04:42.687Z,14.60
2018-08-28T11:07:10.921Z,13.47
2018-08-28T11:09:39.154Z,12.43
2018-08-28T11:12:07.439Z,11.47
2018-08-28T11:14:35.677Z,12.10
2018-08-28T11:17:03.918Z,12.37
2018-08-28T11:19:32.499Z,11.90
2018-08-28T11:22:00.733Z,12.87
2018-08-28T11:24:29.029Z,12.47
2018-08-28T11:26:57.342Z,12.93
2018-08-28T11:29:25.584Z,12.67
2018-08-28T11:31:53.955Z,11.77
2018-08-28T11:34:22.158Z,12.87
2018-08-28T11:36:50.442Z,12.90
2018-08-28T11:39:18.661Z,13.10
2018-08-28T11:41:46.977Z,13.50
2018-08-28T11:44:15.242Z,13.07
2018-08-28T11:46:43.563Z,13.33
2018-08-28T11:49:12.075Z,13.20
2018-08-28T11:51:40.376Z,12.60
2018-08-28T11:54:08.628Z,13.00
2018-08-28T11:56:37.261Z,12.33
2018-08-28T11:59:05.553Z,13.63
2018-08-28T12:01:33.798Z,14.17
2018-08-28T12:04:02.002Z,12.27
2018-08-28T12:06:30.265Z,12.30
2018-08-28T12:08:58.462Z,12.93
2018-08-28T12:11:26.689Z,12.67
2018-08-28T12:13:54.910Z,14.70
2018-08-28T12:16:23.242Z,14.20
2018-08-28T12:18:51.474Z,13.17
2018-08-28T12:21:19.665Z,13.43
2018-08-28T12:23:47.924Z,13.60
2018-08-28T12:26:16.102Z,13.60
2018-08-28T12:28:44.293Z,14.07
2018-08-28T12:31:12.473Z,13.60
2018-08-28T12:33:40.702Z,13.57
2018-08-28T12:36:08.902Z,12.87
2018-08-28T12:38:37.109Z,13.30
2018-08-28T12:41:05.345Z,14.87
2018-08-28T12:43:33.609Z,13.87
2018-08-28T12:46:01.897Z,13.43
2018-08-28T12:48:30.078Z,13.27
2018-08-28T12:50:58.253Z,12.97
2018-08-28T12:53:26.460Z,14.20
2018-08-28T12:55:54.709Z,13.90
2018-08-28T12:58:22.885Z,13.57
2018-08-28T13:00:51.069Z,14.20
2018-08-28T13:03:19.250Z,13.30
2018-08-28T13:05:47.441Z,12.53
2018-08-28T13:08:15.626Z,14.00
2018-08-28T13:10:43.837Z,13.90
2018-08-28T13:13:12.049Z,13.63
2018-08-28T13:15:40.242Z,13.40
2018-08-28T13:18:08.434Z,13.67
2018-08-28T13:20:36.610Z,13.47
2018-08-28T13:23:04.785Z,13.33
2018-08-28T13:25:33.085Z,12.67
2018-08-28T13:28:01.173Z,13.47
2018-08-28T13:30:29.370Z,13.77
2018-08-28T13:32:58.043Z,12.73
2018-08-28T13:35:26.254Z,13.70
2018-08-28T13:37:54.483Z,13.60
2018-08-28T13:40:22.739Z,13.80
2018-08-28T13:42:50.885Z,13.60
2018-08-28T13:45:19.089Z,13.87
2018-08-28T13:47:47.272Z,14.10
2018-08-28T13:50:15.442Z,13.47
2018-08-28T13:52:43.637Z,13.23
2018-08-28T13:55:11.822Z,12.40
2018-08-28T13:57:40.153Z,12.97
2018-08-28T14:00:08.429Z,13.23
2018-08-28T14:02:36.593Z,13.20
2018-08-28T14:05:04.825Z,13.43
2018-08-28T14:07:33.025Z,14.70
2018-08-28T14:10:01.206Z,14.00
2018-08-28T14:12:29.405Z,13.53
2018-08-28T14:14:57.755Z,12.73
2018-08-28T14:17:25.822Z,14.40
2018-08-28T14:19:54.727Z,13.50
2018-08-28T14:22:23.029Z,12.43
2018-08-28T14:24:51.222Z,12.17
2018-08-28T14:27:19.485Z,14.10
2018-08-28T14:29:47.700Z,12.63
2018-08-28T14:32:16.066Z,13.23
2018-08-28T14:34:44.353Z,13.87
2018-08-28T14:37:12.566Z,13.90
2018-08-28T14:39:40.787Z,13.10
2018-08-28T14:42:09.063Z,15.00
2018-08-28T14:44:37.238Z,14.07
2018-08-28T14:47:05.767Z,15.20
2018-08-28T14:49:33.970Z,14.03
2018-08-28T14:52:02.225Z,13.30
2018-08-28T14:54:30.850Z,13.47
2018-08-28T14:56:59.037Z,12.37
2018-08-28T14:59:27.262Z,13.63
2018-08-28T15:01:55.459Z,14.00
2018-08-28T15:04:23.652Z,13.37
2018-08-28T15:06:51.857Z,13.67
2018-08-28T15:09:20.109Z,12.30
2018-08-28T15:11:48.298Z,14.47
2018-08-28T15:14:16.482Z,14.03
2018-08-28T15:16:44.793Z,14.33
2018-08-28T15:19:12.922Z,14.10
2018-08-28T15:21:41.124Z,14.60
2018-08-28T15:24:09.355Z,13.93
2018-08-28T15:26:37.577Z,13.33
2018-08-28T15:29:05.782Z,13.63
2018-08-28T15:31:33.979Z,13.93
2018-08-28T15:34:02.191Z,13.57
2018-08-28T15:36:30.427Z,14.20
2018-08-28T15:38:59.060Z,14.13
2018-08-28T15:41:27.263Z,13.33
2018-08-28T15:43:55.449Z,13.80
2018-08-28T15:46:23.625Z,14.07
2018-08-28T15:48:51.818Z,13.57
2018-08-28T15:51:20.115Z,14.20
2018-08-28T15:53:48.231Z,12.90
2018-08-28T15:56:16.441Z,13.43
2018-08-28T15:58:44.626Z,13.70
2018-08-28T16:01:12.806Z,13.57
2018-08-28T16:03:41.047Z,13.57
2018-08-28T16:06:09.230Z,13.33
2018-08-28T16:08:37.421Z,13.30
2018-08-28T16:11:05.653Z,13.50
2018-08-28T16:13:33.834Z,13.60
2018-08-28T16:16:02.030Z,13.87
2018-08-28T16:18:30.217Z,13.77
2018-08-28T16:20:58.409Z,12.80
2018-08-28T16:23:31.776Z,12.80
2018-08-28T16:26:00.022Z,14.17
2018-08-28T16:28:28.502Z,13.93
2018-08-28T16:30:56.629Z,12.83
2018-08-28T16:33:24.793Z,13.37
2018-08-28T16:35:53.126Z,13.80
2018-08-28T16:38:21.240Z,15.00
2018-08-28T16:40:49.418Z,12.97
2018-08-28T16:43:17.605Z,12.50
2018-08-28T16:45:45.790Z,13.63
2018-08-28T16:48:14.046Z,14.67
2018-08-28T16:50:42.189Z,13.70
2018-08-28T16:53:10.373Z,14.20
2018-08-28T16:55:38.552Z,13.43
2018-08-28T16:58:06.825Z,14.10
2018-08-28T17:00:35.022Z,14.23
2018-08-28T17:03:03.270Z,13.80
2018-08-28T17:05:31.478Z,11.57
2018-08-28T17:07:59.646Z,12.73
2018-08-28T17:10:27.850Z,12.80
2018-08-28T17:12:56.242Z,13.50
2018-08-28T17:15:24.427Z,14.03
2018-08-28T17:17:52.634Z,14.50
2018-08-28T17:20:20.833Z,13.27
2018-08-28T17:22:49.021Z,12.57
2018-08-28T17:25:17.249Z,13.80
2018-08-28T17:27:45.449Z,12.60
2018-08-28T17:30:13.749Z,13.50
2018-08-28T17:32:41.949Z,12.57
2018-08-28T17:35:10.148Z,11.50
2018-08-28T17:37:38.361Z,12.77
2018-08-28T17:40:06.593Z,13.27
2018-08-28T17:42:34.799Z,13.33
2018-08-28T17:45:02.946Z,12.80
2018-08-28T17:47:31.133Z,13.20
2018-08-28T17:49:59.308Z,13.33
2018-08-28T17:52:27.498Z,13.17
2018-08-28T17:54:55.673Z,12.73
2018-08-28T17:57:23.849Z,12.20
2018-08-28T17:59:52.126Z,13.00
2018-08-28T18:02:20.329Z,13.43
2018-08-28T18:04:48.510Z,13.73
2018-08-28T18:07:16.694Z,12.30
2018-08-28T18:09:44.874Z,12.90
2018-08-28T18:12:13.058Z,12.40
2018-08-28T18:14:41.249Z,12.50
2018-08-28T18:17:09.453Z,12.27
2018-08-28T18:19:37.626Z,11.33
2018-08-28T18:22:05.811Z,12.60
2018-08-28T18:24:34.117Z,10.90
2018-08-28T18:27:02.381Z,11.90
2018-08-28T18:29:30.589Z,11.33
2018-08-28T18:31:58.745Z,11.83
2018-08-28T18:34:26.969Z,11.77
2018-08-28T18:36:55.130Z,12.00
2018-08-28T18:39:23.333Z,11.13
2018-08-28T18:41:51.536Z,12.00
2018-08-28T18:44:19.734Z,12.37
2018-08-28T18:46:48.078Z,11.30
2018-08-28T18:49:16.217Z,10.97
2018-08-28T18:51:44.399Z,11.43
2018-08-28T18:54:12.577Z,11.57
2018-08-28T18:56:40.845Z,11.60
2018-08-28T18:59:09.041Z,11.13
2018-08-28T19:01:37.242Z,12.37
2018-08-28T19:04:05.750Z,12.30
2018-08-28T19:06:33.934Z,10.63
2018-08-28T19:09:02.253Z,14.13
2018-08-28T19:11:30.793Z,11.50
2018-08-28T19:13:59.341Z,12.10
2018-08-28T19:16:27.589Z,12.30
2018-08-28T19:18:55.866Z,11.80
2018-08-28T19:21:24.167Z,11.80
2018-08-28T19:23:52.434Z,10.93
2018-08-28T19:26:20.610Z,11.37
2018-08-28T19:28:55.353Z,11.70
2018-08-28T19:31:23.541Z,12.30
2018-08-28T19:33:51.950Z,12.10
2018-08-28T19:36:20.229Z,12.30
2018-08-28T19:38:48.627Z,12.67
2018-08-28T19:41:17.049Z,12.53
2018-08-28T19:43:45.225Z,12.80
2018-08-28T19:46:13.471Z,12.30
2018-08-28T19:48:41.709Z,11.60
2018-08-28T19:51:09.952Z,12.40
2018-08-28T19:53:38.333Z,11.60
2018-08-28T19:56:06.558Z,12.27
2018-08-28T19:58:34.840Z,12.17
2018-08-28T20:01:03.190Z,12.20
2018-08-28T20:03:31.405Z,12.83
2018-08-28T20:05:59.698Z,13.03
2018-08-28T20:08:28.032Z,12.73
2018-08-28T20:10:56.282Z,13.50
2018-08-28T20:13:24.999Z,12.60
2018-08-28T20:15:53.254Z,12.20
2018-08-28T20:18:21.550Z,13.80
2018-08-28T20:20:50.099Z,13.50
2018-08-28T20:23:18.353Z,12.10
2018-08-28T20:25:46.617Z,13.80
2018-08-28T20:28:14.810Z,12.93
2018-08-28T20:30:43.111Z,14.00
2018-08-28T20:33:11.433Z,13.07
2018-08-28T20:35:39.688Z,14.93
2018-08-28T20:38:07.994Z,13.53
2018-08-28T20:40:36.173Z,14.00
2018-08-28T20:43:04.745Z,14.30
2018-08-28T20:45:32.974Z,14.20
2018-08-28T20:48:01.439Z,15.40
2018-08-28T20:50:30.099Z,15.30
2018-08-28T20:52:58.413Z,15.83
2018-08-28T20:55:26.718Z,15.17
2018-08-28T20:57:55.015Z,14.67
2018-08-28T21:00:23.297Z,14.63
2018-08-28T21:02:51.692Z,14.93
2018-08-28T21:05:29.441Z,14.17
2018-08-28T21:07:59.295Z,15.50
2018-08-28T21:10:28.184Z,15.33
2018-08-28T21:12:57.174Z,13.90
2018-08-28T21:15:25.995Z,15.40
2018-08-28T21:17:54.590Z,16.83
2018-08-28T21:20:22.901Z,14.17
2018-08-28T21:22:51.171Z,15.50
2018-08-28T21:25:19.494Z,15.80
2018-08-28T21:27:47.750Z,14.60
2018-08-28T21:30:16.040Z,14.20
2018-08-28T21:32:44.318Z,15.60
2018-08-28T21:35:12.534Z,15.53
2018-08-28T21:37:41.093Z,14.17
2018-08-28T21:40:11.616Z,14.90
2018-08-28T21:42:39.854Z,14.97
2018-08-28T21:45:08.073Z,15.53
2018-08-28T21:47:36.301Z,16.50
2018-08-28T21:50:04.693Z,14.67
2018-08-28T21:52:32.931Z,15.10
2018-08-28T21:55:01.293Z,14.53
2018-08-28T21:57:29.573Z,15.40
2018-08-28T21:59:57.914Z,15.47
2018-08-28T22:02:26.243Z,14.40
2018-08-28T22:04:54.481Z,14.67
2018-08-28T22:07:28.149Z,15.20
2018-08-28T22:09:56.382Z,15.97
2018-08-28T22:12:24.679Z,14.57
2018-08-28T22:14:52.941Z,15.60
2018-08-28T22:17:22.117Z,15.30
2018-08-28T22:19:50.413Z,15.40
2018-08-28T22:22:18.669Z,16.00
2018-08-28T22:24:46.850Z,16.33
2018-08-28T22:27:15.038Z,14.70
2018-08-28T22:29:43.250Z,15.07
2018-08-28T22:32:11.658Z,14.73
2018-08-28T22:34:39.903Z,14.93
2018-08-28T22:37:08.141Z,16.33
2018-08-28T22:39:36.374Z,15.40
2018-08-28T22:42:04.609Z,15.20
2018-08-28T22:44:42.559Z,14.47
2018-08-28T22:47:15.468Z,15.63
2018-08-28T22:49:43.725Z,15.10
2018-08-28T22:52:11.901Z,14.80
2018-08-28T22:54:40.105Z,15.10
2018-08-28T22:57:08.301Z,14.43
2018-08-28T22:59:58.043Z,14.93
2018-08-28T23:02:26.965Z,15.40
2018-08-28T23:04:55.322Z,14.73
2018-08-28T23:07:23.782Z,15.00
2018-08-28T23:09:51.962Z,15.40
2018-08-28T23:12:20.196Z,15.00
2018-08-28T23:14:48.333Z,14.43
2018-08-28T23:17:16.521Z,15.30
2018-08-28T23:19:44.698Z,14.37
2018-08-28T23:22:12.966Z,14.70
2018-08-28T23:24:48.710Z,14.10
2018-08-28T23:27:21.218Z,14.57
2018-08-28T23:29:49.486Z,14.77
2018-08-28T23:32:17.732Z,15.30
2018-08-28T23:34:45.938Z,15.57
2018-08-28T23:37:14.231Z,15.67
2018-08-28T23:39:42.502Z,16.70
2018-08-28T23:42:10.816Z,14.17
2018-08-28T23:44:39.073Z,16.80
2018-08-28T23:47:07.294Z,14.53
2018-08-28T23:49:35.482Z,15.47
2018-08-28T23:52:03.932Z,16.30
2018-08-28T23:54:32.143Z,15.03
2018-08-28T23:57:00.434Z,15.40
2018-08-28T23:59:28.606Z,14.90
